NRN weather

Narayen
Narayen, Queensland, Australia

Public forecast

Using degrees Celsius for public forecast. Weather courtesy of forecast.io.

Closest aviation weather report (METAR) to Narayen

Closest report is Kingaroy Airport, 75.6 nm (140.1 km) SE. Retrieved 2019/12/10 18:00 UTC (31 minutes ago):

YKRY 101800Z AUTO 35003KT 9999 // NCD 19/16 Q1014

Closest aviation forecast (TAF) to Narayen

Closest forecast is Gladstone Airport, 110.6 nm (204.8 km) N. Retrieved 2019/12/10 18:00 UTC (31 minutes ago):

TAF YGLA 101602Z 1018/1106 19005KT 9999 SCT020 FM102200 05013KT 9999 FEW025